Time;durP1;ratioP1;P1;durP2;ratioP2;P2;SDS_P1;SDS_P2;PMS_P1;PMS_P2;Temp;Humidity;BMP_temperature;BMP_pressure;BME280_temperature;BME280_humidity;BME280_pressure;Samples;Min_cycle;Max_cycle;Signal;HPM_P1;HPM_P2
2023/01/13 00:02:16;;;;;;;28.48;19.20;;;;;;;;;;5036549;28;20041;-66
2023/01/13 00:04:43;;;;;;;21.88;18.45;;;;;;;;;;5034107;28;20060;-66
2023/01/13 00:07:09;;;;;;;21.40;15.55;;;;;;;;;;5032590;28;20715;-66
2023/01/13 00:09:36;;;;;;;23.60;16.27;;;;;;;;;;5037213;28;20852;-66
2023/01/13 00:12:04;;;;;;;24.55;18.52;;;;;;;;;;5033013;28;20053;-66
2023/01/13 00:14:34;;;;;;;20.25;17.30;;;;;;;;;;5031949;28;20048;-66
2023/01/13 00:17:01;;;;;;;17.35;14.80;;;;;;;;;;5035798;28;20049;-66
2023/01/13 00:19:28;;;;;;;20.73;17.30;;;;;;;;;;5034581;28;20033;-67
2023/01/13 00:21:54;;;;;;;21.13;15.32;;;;;;;;;;5038230;28;20135;-67
2023/01/13 00:24:21;;;;;;;17.30;10.18;;;;;;;;;;5031800;28;20708;-67
2023/01/13 00:26:48;;;;;;;18.55;14.68;;;;;;;;;;5033563;28;20053;-67
2023/01/13 00:29:15;;;;;;;15.45;9.68;;;;;;;;;;5035399;28;20498;-67
2023/01/13 00:31:42;;;;;;;19.55;15.25;;;;;;;;;;5035465;28;20136;-67
2023/01/13 00:34:08;;;;;;;17.55;12.80;;;;;;;;;;5027904;28;20045;-67
2023/01/13 00:36:35;;;;;;;14.98;10.02;;;;;;;;;;5035557;28;20710;-66
2023/01/13 00:39:02;;;;;;;20.90;14.30;;;;;;;;;;5035785;28;20128;-66
2023/01/13 00:43:21;;;;;;;20.30;14.80;;;;;;;;;;5032825;28;20049;-66
2023/01/13 00:44:15;;;;;;;17.98;14.57;;;;;;;;;;5029172;28;20033;-66
2023/01/13 00:46:42;;;;;;;23.25;19.05;;;;;;;;;;5035479;28;20110;-66
2023/01/13 00:49:09;;;;;;;21.20;17.60;;;;;;;;;;5034184;28;20114;-66
2023/01/13 00:51:35;;;;;;;24.08;17.98;;;;;;;;;;5032741;28;20052;-66
2023/01/13 00:54:02;;;;;;;21.27;16.80;;;;;;;;;;5038106;28;20049;-68
2023/01/13 00:56:29;;;;;;;19.98;14.27;;;;;;;;;;5034386;28;20099;-66
2023/01/13 00:59:10;;;;;;;19.15;16.50;;;;;;;;;;5037214;28;20045;-68
2023/01/13 01:01:37;;;;;;;21.92;15.00;;;;;;;;;;5032096;28;20064;-68
2023/01/13 01:04:05;;;;;;;19.85;16.00;;;;;;;;;;5035327;28;20056;-67
2023/01/13 01:06:32;;;;;;;18.33;15.02;;;;;;;;;;5033412;28;20052;-67
2023/01/13 01:08:58;;;;;;;21.30;17.27;;;;;;;;;;5037095;28;20140;-68
2023/01/13 01:11:27;;;;;;;19.30;15.23;;;;;;;;;;5029987;28;20174;-68
2023/01/13 01:13:54;;;;;;;20.92;15.55;;;;;;;;;;5034059;28;20045;-68
2023/01/13 01:16:22;;;;;;;17.50;14.20;;;;;;;;;;5033051;28;20081;-68
2023/01/13 01:18:50;;;;;;;23.23;18.40;;;;;;;;;;5031951;28;20045;-68
2023/01/13 01:21:17;;;;;;;15.77;13.88;;;;;;;;;;5029071;28;20041;-68
2023/01/13 01:23:44;;;;;;;19.33;14.68;;;;;;;;;;5033723;28;20041;-68
2023/01/13 01:26:13;;;;;;;15.88;14.18;;;;;;;;;;5036256;28;20055;-67
2023/01/13 01:28:40;;;;;;;15.57;13.50;;;;;;;;;;5032993;28;20041;-68
2023/01/13 01:31:12;;;;;;;13.85;12.25;;;;;;;;;;5036114;28;20053;-68
2023/01/13 01:33:42;;;;;;;16.08;14.40;;;;;;;;;;5034887;28;20049;-68
2023/01/13 01:36:10;;;;;;;49.47;30.50;;;;;;;;;;5037422;28;20045;-67
2023/01/13 01:38:37;;;;;;;129.27;58.88;;;;;;;;;;5033162;28;20057;-68
2023/01/13 01:41:04;;;;;;;58.42;28.98;;;;;;;;;;5039483;28;20037;-68
2023/01/13 01:44:01;;;;;;;19.73;15.88;;;;;;;;;;5031203;28;20052;-68
2023/01/13 01:46:28;;;;;;;17.60;13.98;;;;;;;;;;5037584;28;20156;-68
2023/01/13 01:49:07;;;;;;;15.88;13.20;;;;;;;;;;5034628;28;20048;-68
2023/01/13 01:51:38;;;;;;;14.10;12.35;;;;;;;;;;5036544;28;20109;-68
2023/01/13 01:54:06;;;;;;;16.50;14.77;;;;;;;;;;5031564;28;20582;-68
2023/01/13 01:56:34;;;;;;;15.73;14.02;;;;;;;;;;5035015;28;20460;-68
2023/01/13 01:59:00;;;;;;;14.18;12.27;;;;;;;;;;5032438;28;20124;-68
2023/01/13 02:01:27;;;;;;;15.57;13.07;;;;;;;;;;5035652;28;20589;-68
2023/01/13 02:03:58;;;;;;;16.15;14.60;;;;;;;;;;5051353;28;20041;-68
2023/01/13 02:06:29;;;;;;;24.45;19.15;;;;;;;;;;5035397;28;20052;-68
2023/01/13 02:08:57;;;;;;;23.45;17.35;;;;;;;;;;5033629;28;20064;-67
2023/01/13 02:14:17;;;;;;;15.88;12.88;;;;;;;;;;5031777;28;20072;-68
2023/01/13 02:16:47;;;;;;;16.92;15.07;;;;;;;;;;5030964;28;20040;-68
2023/01/13 02:19:26;;;;;;;14.98;11.32;;;;;;;;;;5031712;28;20065;-67
2023/01/13 02:21:56;;;;;;;16.80;14.55;;;;;;;;;;5030907;28;20040;-67
2023/01/13 02:24:52;;;;;;;16.33;12.15;;;;;;;;;;5032663;28;20045;-67
2023/01/13 02:27:35;;;;;;;14.98;13.38;;;;;;;;;;5026861;28;20045;-67
2023/01/13 02:33:18;;;;;;;15.57;13.98;;;;;;;;;;5028181;28;20140;-67
2023/01/13 02:35:48;;;;;;;19.77;15.48;;;;;;;;;;5026279;28;20124;-67
2023/01/13 02:38:18;;;;;;;17.27;15.48;;;;;;;;;;5033507;28;20037;-67
2023/01/13 02:44:05;;;;;;;14.63;13.07;;;;;;;;;;5029304;28;20048;-67
2023/01/13 02:44:07;;;;;;;16.98;15.20;;;;;;;;;;5024735;28;20061;-68
2023/01/13 02:46:40;;;;;;;13.65;12.32;;;;;;;;;;5033353;28;20045;-67
2023/01/13 02:49:09;;;;;;;13.20;11.82;;;;;;;;;;5029123;28;20045;-67
2023/01/13 02:51:35;;;;;;;;;;;;;;;;;;5030201;28;20041;-67
2023/01/13 02:54:07;;;;;;;14.45;12.95;;;;;;;;;;5050084;28;19928;-67
2023/01/13 02:56:36;;;;;;;10.10;9.05;;;;;;;;;;5034637;28;20052;-67
2023/01/13 02:59:03;;;;;;;11.35;10.13;;;;;;;;;;5029845;28;20795;-67
2023/01/13 03:01:29;;;;;;;16.08;13.02;;;;;;;;;;5035993;28;20136;-67
2023/01/13 03:03:56;;;;;;;20.70;14.43;;;;;;;;;;5034495;28;20695;-67
2023/01/13 03:07:01;;;;;;;14.57;13.05;;;;;;;;;;5029953;28;20085;-67
2023/01/13 03:09:32;;;;;;;17.13;12.82;;;;;;;;;;4965648;28;20046;-68
2023/01/13 03:12:06;;;;;;;20.42;12.45;;;;;;;;;;4959489;28;20078;-67
2023/01/13 03:14:40;;;;;;;12.15;10.90;;;;;;;;;;4996837;28;20034;-66
2023/01/13 03:17:30;;;;;;;15.50;13.40;;;;;;;;;;5033409;28;20492;-67
2023/01/13 03:19:57;;;;;;;19.08;13.57;;;;;;;;;;5033569;28;20056;-66
2023/01/13 03:22:24;;;;;;;14.20;11.77;;;;;;;;;;5032165;28;20819;-67
2023/01/13 03:24:56;;;;;;;22.08;15.95;;;;;;;;;;5027252;28;20055;-66
2023/01/13 03:27:42;;;;;;;27.27;17.17;;;;;;;;;;5033889;28;20041;-67
2023/01/13 03:30:14;;;;;;;19.38;13.88;;;;;;;;;;5030250;28;21397;-66
2023/01/13 03:32:42;;;;;;;14.38;10.73;;;;;;;;;;5028469;28;20057;-66
2023/01/13 03:35:19;;;;;;;14.82;12.82;;;;;;;;;;5028915;28;20049;-67
2023/01/13 03:37:49;;;;;;;14.40;10.75;;;;;;;;;;5034195;28;20527;-66
2023/01/13 03:40:19;;;;;;;15.77;9.30;;;;;;;;;;5031322;28;20049;-67
2023/01/13 03:45:38;;;;;;;23.40;18.90;;;;;;;;;;5031934;28;20520;-67
2023/01/13 03:48:11;;;;;;;18.10;9.90;;;;;;;;;;5032124;28;20725;-67
2023/01/13 03:50:40;;;;;;;12.85;11.40;;;;;;;;;;5029164;28;20064;-67
2023/01/13 03:53:12;;;;;;;16.83;11.63;;;;;;;;;;5030140;28;20049;-67
2023/01/13 03:55:54;;;;;;;14.73;11.85;;;;;;;;;;5038724;28;20040;-67
2023/01/13 03:58:23;;;;;;;11.48;8.50;;;;;;;;;;5036492;28;20083;-67
2023/01/13 04:00:53;;;;;;;27.67;20.08;;;;;;;;;;5036298;28;20041;-67
2023/01/13 04:03:30;;;;;;;13.30;11.93;;;;;;;;;;5034716;28;20037;-67
2023/01/13 04:06:03;;;;;;;12.13;10.93;;;;;;;;;;5040086;28;20607;-67
2023/01/13 04:08:31;;;;;;;11.95;10.73;;;;;;;;;;5030260;28;20037;-67
2023/01/13 04:11:33;;;;;;;13.98;12.30;;;;;;;;;;5039427;28;20049;-67
2023/01/13 04:14:01;;;;;;;16.10;13.35;;;;;;;;;;4995452;28;20089;-67
2023/01/13 04:16:28;;;;;;;19.52;15.70;;;;;;;;;;5031071;28;20037;-67
2023/01/13 04:18:55;;;;;;;15.00;8.52;;;;;;;;;;5053111;28;20678;-67
2023/01/13 04:21:22;;;;;;;18.45;16.15;;;;;;;;;;5038511;28;20128;-67
2023/01/13 04:23:50;;;;;;;14.65;13.15;;;;;;;;;;5034020;28;20041;-67
2023/01/13 04:26:18;;;;;;;13.13;9.43;;;;;;;;;;5037681;28;20642;-67
2023/01/13 04:28:45;;;;;;;17.65;13.70;;;;;;;;;;5033295;28;20611;-67
2023/01/13 04:31:12;;;;;;;16.40;13.65;;;;;;;;;;5029108;28;20059;-67
2023/01/13 04:33:39;;;;;;;24.50;18.13;;;;;;;;;;5037478;28;20099;-67
2023/01/13 04:36:06;;;;;;;12.02;8.23;;;;;;;;;;5030956;28;20500;-67
2023/01/13 04:38:32;;;;;;;15.15;12.75;;;;;;;;;;5036097;28;20040;-67
2023/01/13 04:41:11;;;;;;;21.05;13.00;;;;;;;;;;5032923;28;20045;-69
2023/01/13 04:43:39;;;;;;;14.63;12.60;;;;;;;;;;5039824;28;20052;-67
2023/01/13 04:46:05;;;;;;;14.90;11.85;;;;;;;;;;5036441;28;20045;-67
2023/01/13 04:48:32;;;;;;;16.13;12.90;;;;;;;;;;5039682;28;20504;-67
2023/01/13 04:50:59;;;;;;;16.08;14.48;;;;;;;;;;5036500;28;20045;-67
2023/01/13 04:53:26;;;;;;;16.17;13.60;;;;;;;;;;5033737;28;20045;-69
2023/01/13 04:55:55;;;;;;;12.93;11.20;;;;;;;;;;5034930;28;20036;-67
2023/01/13 04:58:22;;;;;;;24.52;17.25;;;;;;;;;;5035592;28;20056;-68
2023/01/13 05:00:49;;;;;;;16.58;13.18;;;;;;;;;;5033274;28;20096;-67
2023/01/13 05:03:17;;;;;;;19.00;14.75;;;;;;;;;;5040132;28;20052;-67
2023/01/13 05:05:44;;;;;;;13.98;12.30;;;;;;;;;;5035905;28;20980;-66
2023/01/13 05:08:11;;;;;;;13.93;8.40;;;;;;;;;;5027375;28;20701;-66
2023/01/13 05:10:38;;;;;;;13.95;11.77;;;;;;;;;;5035036;28;20046;-66
2023/01/13 05:18:49;;;;;;;15.40;13.80;;;;;;;;;;5024000;28;20044;-67
2023/01/13 05:26:51;;;;;;;16.50;14.55;;;;;;;;;;5008750;28;20128;-68
2023/01/13 05:29:18;;;;;;;15.55;13.40;;;;;;;;;;5033680;28;20534;-68
2023/01/13 05:31:44;;;;;;;16.05;13.70;;;;;;;;;;5030704;28;20052;-68
2023/01/13 05:34:11;;;;;;;18.17;15.70;;;;;;;;;;5036167;28;20049;-68
2023/01/13 05:36:38;;;;;;;11.43;8.05;;;;;;;;;;5034215;28;20694;-67
2023/01/13 05:39:05;;;;;;;13.23;11.75;;;;;;;;;;5032935;28;20124;-68
2023/01/13 05:44:27;;;;;;;12.93;10.20;;;;;;;;;;5016521;28;20048;-68
2023/01/13 05:46:55;;;;;;;13.77;12.38;;;;;;;;;;5036383;28;20040;-67
2023/01/13 05:49:23;;;;;;;14.70;12.55;;;;;;;;;;5039815;28;20052;-66
2023/01/13 05:51:51;;;;;;;14.18;12.73;;;;;;;;;;5027422;28;20036;-67
2023/01/13 05:54:19;;;;;;;15.35;13.55;;;;;;;;;;5032668;28;20045;-68
2023/01/13 05:56:45;;;;;;;16.45;13.00;;;;;;;;;;5033954;28;20044;-68
2023/01/13 05:59:14;;;;;;;16.30;14.18;;;;;;;;;;5033451;28;20049;-68
2023/01/13 06:01:41;;;;;;;;;;;;;;;;;;5033119;28;20118;-68
2023/01/13 06:04:10;;;;;;;17.60;14.15;;;;;;;;;;5037199;28;19924;-70
2023/01/13 06:06:38;;;;;;;18.52;14.35;;;;;;;;;;5043361;28;20053;-70
2023/01/13 06:09:04;;;;;;;19.45;14.77;;;;;;;;;;5036136;28;20045;-70
2023/01/13 06:11:31;;;;;;;19.35;15.75;;;;;;;;;;5033782;28;20052;-70
2023/01/13 06:13:58;;;;;;;18.13;16.35;;;;;;;;;;5035931;28;20112;-70
2023/01/13 06:16:25;;;;;;;17.08;14.93;;;;;;;;;;5032849;28;20033;-70
2023/01/13 06:18:53;;;;;;;17.63;11.48;;;;;;;;;;5037612;28;20064;-69
2023/01/13 06:21:20;;;;;;;19.65;16.77;;;;;;;;;;5032117;28;20041;-69
2023/01/13 06:23:46;;;;;;;20.92;15.85;;;;;;;;;;5034711;28;20520;-69
2023/01/13 06:26:17;;;;;;;17.38;14.50;;;;;;;;;;5028254;28;20059;-70
2023/01/13 06:28:44;;;;;;;19.30;15.82;;;;;;;;;;5031822;28;20136;-69
2023/01/13 06:31:11;;;;;;;23.25;15.32;;;;;;;;;;5031555;28;20060;-69
2023/01/13 06:33:41;;;;;;;17.23;15.43;;;;;;;;;;5032298;28;20792;-69
2023/01/13 06:36:15;;;;;;;17.17;15.38;;;;;;;;;;5029249;28;20731;-69
2023/01/13 06:38:45;;;;;;;16.50;14.50;;;;;;;;;;5032912;28;20068;-69
2023/01/13 06:41:12;;;;;;;18.75;15.60;;;;;;;;;;5035344;28;20576;-70
2023/01/13 06:43:39;;;;;;;16.73;14.52;;;;;;;;;;5035356;28;20037;-70
2023/01/13 06:46:05;;;;;;;18.58;15.63;;;;;;;;;;5039038;28;20051;-69
2023/01/13 06:48:33;;;;;;;16.77;13.85;;;;;;;;;;5029361;28;20095;-69
2023/01/13 06:51:01;;;;;;;;;;;;;;;;;;5033388;28;20055;-69
2023/01/13 06:53:28;;;;;;;17.58;14.02;;;;;;;;;;5030193;28;19924;-69
2023/01/13 06:55:55;;;;;;;19.00;17.00;;;;;;;;;;5037940;28;20805;-69
2023/01/13 06:58:22;;;;;;;23.75;18.70;;;;;;;;;;5030889;28;20037;-69
2023/01/13 07:00:50;;;;;;;22.33;18.42;;;;;;;;;;5038176;28;20041;-69
2023/01/13 07:03:18;;;;;;;21.52;18.05;;;;;;;;;;5032210;28;20057;-69
2023/01/13 07:05:52;;;;;;;20.38;16.85;;;;;;;;;;5037664;28;20049;-69
2023/01/13 07:08:18;;;;;;;29.10;15.80;;;;;;;;;;5032909;28;20494;-69
2023/01/13 07:10:45;;;;;;;25.13;20.95;;;;;;;;;;5036151;28;20049;-69
2023/01/13 07:16:02;;;;;;;28.10;22.13;;;;;;;;;;5029770;28;20668;-69
2023/01/13 07:18:30;;;;;;;41.83;30.48;;;;;;;;;;5034035;28;20140;-69
2023/01/13 07:21:01;;;;;;;45.05;33.05;;;;;;;;;;5036642;28;20048;-69
2023/01/13 07:23:29;;;;;;;45.05;31.90;;;;;;;;;;5037077;28;20122;-69
2023/01/13 07:25:56;;;;;;;38.30;30.25;;;;;;;;;;5032721;28;20037;-69
2023/01/13 07:28:24;;;;;;;34.13;25.55;;;;;;;;;;5031245;28;20044;-69
2023/01/13 07:30:51;;;;;;;51.28;39.00;;;;;;;;;;5034870;28;20046;-69
2023/01/13 07:33:18;;;;;;;45.90;35.47;;;;;;;;;;5036909;28;20049;-69
2023/01/13 07:35:46;;;;;;;35.65;29.02;;;;;;;;;;5037336;28;20099;-69
2023/01/13 07:38:13;;;;;;;31.50;27.48;;;;;;;;;;5039437;28;20075;-69
2023/01/13 07:40:40;;;;;;;17.83;14.93;;;;;;;;;;5035982;28;20045;-69
2023/01/13 07:45:55;;;;;;;30.38;27.25;;;;;;;;;;5036287;28;20052;-69
2023/01/13 07:48:23;;;;;;;16.83;15.07;;;;;;;;;;5035844;28;20538;-68
2023/01/13 07:50:50;;;;;;;19.35;15.48;;;;;;;;;;5039737;28;20041;-69
2023/01/13 07:53:16;;;;;;;18.83;15.85;;;;;;;;;;5031550;28;20053;-69
2023/01/13 07:55:43;;;;;;;18.48;15.43;;;;;;;;;;5033401;28;20096;-68
2023/01/13 07:58:10;;;;;;;19.15;14.13;;;;;;;;;;5036448;28;20060;-69
2023/01/13 08:00:37;;;;;;;18.27;15.02;;;;;;;;;;5032089;28;20827;-68
2023/01/13 08:03:04;;;;;;;19.33;14.73;;;;;;;;;;5031300;28;20055;-68
2023/01/13 08:05:31;;;;;;;20.90;15.98;;;;;;;;;;5040342;28;20137;-69
2023/01/13 08:07:58;;;;;;;12.20;9.70;;;;;;;;;;5033075;28;20678;-69
2023/01/13 08:10:25;;;;;;;19.60;17.50;;;;;;;;;;5038931;28;20132;-68
2023/01/13 08:15:37;;;;;;;12.73;11.07;;;;;;;;;;5052557;28;20819;-69
2023/01/13 08:18:03;;;;;;;20.40;16.83;;;;;;;;;;5037552;28;20049;-69
2023/01/13 08:20:30;;;;;;;15.10;12.38;;;;;;;;;;5039322;28;20044;-69
2023/01/13 08:22:57;;;;;;;14.32;12.63;;;;;;;;;;5038412;28;20057;-68
2023/01/13 08:25:25;;;;;;;13.68;11.15;;;;;;;;;;5042005;28;20144;-68
2023/01/13 08:27:52;;;;;;;20.50;14.98;;;;;;;;;;5035101;28;20559;-68
2023/01/13 08:30:19;;;;;;;13.40;11.77;;;;;;;;;;5039134;28;20049;-68
2023/01/13 08:32:49;;;;;;;13.35;11.98;;;;;;;;;;5040029;28;20052;-68
2023/01/13 08:35:16;;;;;;;11.65;9.70;;;;;;;;;;5033241;28;20427;-68
2023/01/13 08:37:43;;;;;;;12.77;9.68;;;;;;;;;;5037998;28;20051;-68
2023/01/13 08:40:11;;;;;;;14.05;12.57;;;;;;;;;;5037706;28;20742;-68
2023/01/13 08:42:38;;;;;;;22.25;14.95;;;;;;;;;;5038869;28;20920;-68
2023/01/13 08:45:05;;;;;;;10.80;7.35;;;;;;;;;;5035068;28;20115;-68
2023/01/13 08:47:32;;;;;;;11.90;9.40;;;;;;;;;;5037320;28;20041;-68
2023/01/13 08:49:58;;;;;;;9.68;8.05;;;;;;;;;;5032896;28;20052;-67
2023/01/13 08:52:25;;;;;;;9.68;8.75;;;;;;;;;;5034632;28;20044;-67
2023/01/13 08:54:52;;;;;;;10.93;9.80;;;;;;;;;;5034990;28;20041;-69
2023/01/13 08:57:18;;;;;;;8.93;8.02;;;;;;;;;;5037831;28;20044;-68
2023/01/13 08:59:46;;;;;;;9.20;7.90;;;;;;;;;;5030108;28;20041;-68
2023/01/13 09:02:13;;;;;;;10.35;9.25;;;;;;;;;;5033362;28;20057;-68
2023/01/13 09:04:41;;;;;;;10.13;9.20;;;;;;;;;;5033632;28;20041;-68
2023/01/13 09:07:08;;;;;;;8.18;7.05;;;;;;;;;;5029025;28;20041;-68
2023/01/13 09:09:35;;;;;;;10.30;8.13;;;;;;;;;;5036316;28;20135;-68
2023/01/13 09:14:47;;;;;;;7.57;6.40;;;;;;;;;;5037087;28;20478;-68
2023/01/13 09:17:14;;;;;;;7.75;5.65;;;;;;;;;;5035746;28;20474;-68
2023/01/13 09:19:41;;;;;;;8.57;7.60;;;;;;;;;;5032929;28;20048;-68
2023/01/13 09:22:12;;;;;;;6.00;4.07;;;;;;;;;;5033334;28;20907;-68
2023/01/13 09:24:39;;;;;;;7.60;6.90;;;;;;;;;;5038756;28;20045;-68
2023/01/13 09:27:06;;;;;;;7.85;6.30;;;;;;;;;;5035421;28;20040;-68
2023/01/13 09:29:32;;;;;;;7.75;5.47;;;;;;;;;;5031447;28;20057;-68
2023/01/13 09:31:59;;;;;;;6.82;6.22;;;;;;;;;;5033727;28;20044;-68
2023/01/13 09:37:11;;;;;;;19.42;11.98;;;;;;;;;;5033870;28;20045;-68
2023/01/13 09:39:38;;;;;;;4.85;4.43;;;;;;;;;;5032393;28;20456;-68
2023/01/13 09:45:06;;;;;;;8.23;7.47;;;;;;;;;;5033309;28;20060;-68
2023/01/13 09:47:35;;;;;;;6.65;6.05;;;;;;;;;;5033740;28;20566;-68
2023/01/13 09:50:18;;;;;;;8.85;8.05;;;;;;;;;;5027389;28;20049;-68
2023/01/13 09:52:45;;;;;;;14.25;12.95;;;;;;;;;;5032126;28;20049;-68
2023/01/13 09:55:16;;;;;;;6.40;5.80;;;;;;;;;;5032908;28;20045;-68
2023/01/13 09:57:43;;;;;;;7.35;6.65;;;;;;;;;;5034777;28;20045;-68
2023/01/13 10:00:10;;;;;;;8.48;7.57;;;;;;;;;;5030708;28;20045;-67
2023/01/13 10:02:55;;;;;;;8.82;7.78;;;;;;;;;;5034653;28;20045;-68
2023/01/13 10:05:34;;;;;;;9.18;8.27;;;;;;;;;;5030503;28;20055;-68
2023/01/13 10:08:04;;;;;;;8.07;4.70;;;;;;;;;;5033081;28;20720;-68
2023/01/13 10:10:40;;;;;;;10.98;8.90;;;;;;;;;;5033845;28;20118;-68
2023/01/13 10:13:27;;;;;;;12.43;10.52;;;;;;;;;;5034963;28;20052;-69
2023/01/13 10:16:09;;;;;;;20.38;14.38;;;;;;;;;;5031723;28;20155;-70
2023/01/13 10:18:54;;;;;;;8.55;7.32;;;;;;;;;;5036182;28;20040;-68
2023/01/13 10:21:40;;;;;;;8.40;6.32;;;;;;;;;;5035164;28;20475;-68
2023/01/13 10:24:26;;;;;;;9.18;4.55;;;;;;;;;;5035760;28;20851;-70
2023/01/13 10:27:04;;;;;;;8.82;7.07;;;;;;;;;;5029367;28;20045;-68
2023/01/13 10:29:31;;;;;;;7.72;7.03;;;;;;;;;;5035889;28;20095;-69
2023/01/13 10:31:58;;;;;;;8.30;5.18;;;;;;;;;;5033573;28;20955;-68
2023/01/13 10:34:25;;;;;;;8.00;7.00;;;;;;;;;;5033820;28;20063;-69
2023/01/13 10:36:59;;;;;;;10.40;9.35;;;;;;;;;;5036179;28;20090;-69
2023/01/13 10:39:26;;;;;;;8.68;7.78;;;;;;;;;;5033396;28;20036;-68
2023/01/13 10:42:05;;;;;;;8.82;7.93;;;;;;;;;;5034432;28;20115;-69
2023/01/13 10:44:44;;;;;;;11.18;8.95;;;;;;;;;;5039018;28;20048;-70
2023/01/13 10:47:18;;;;;;;6.25;5.65;;;;;;;;;;5031908;28;20056;-70
2023/01/13 10:49:57;;;;;;;7.55;5.28;;;;;;;;;;5036856;28;20436;-69
2023/01/13 10:52:28;;;;;;;6.97;6.30;;;;;;;;;;5034142;28;20048;-69
2023/01/13 10:54:55;;;;;;;5.50;5.00;;;;;;;;;;5035677;28;20045;-69
2023/01/13 10:57:24;;;;;;;5.72;5.05;;;;;;;;;;5034410;28;20065;-68
2023/01/13 10:59:51;;;;;;;8.77;7.88;;;;;;;;;;5033919;28;20049;-69
2023/01/13 11:02:23;;;;;;;7.43;6.75;;;;;;;;;;5034282;28;20053;-70
2023/01/13 11:04:52;;;;;;;13.23;9.68;;;;;;;;;;5029610;28;20080;-69
2023/01/13 11:07:30;;;;;;;12.65;10.30;;;;;;;;;;5036321;28;20045;-69
2023/01/13 11:10:09;;;;;;;10.20;8.13;;;;;;;;;;5036118;28;20045;-69
2023/01/13 11:12:48;;;;;;;8.32;7.53;;;;;;;;;;5035191;28;20605;-68
2023/01/13 11:15:18;;;;;;;11.15;10.13;;;;;;;;;;5030496;28;20747;-68
2023/01/13 11:17:48;;;;;;;8.85;7.95;;;;;;;;;;5036633;28;20041;-69
2023/01/13 11:20:14;;;;;;;7.30;6.60;;;;;;;;;;5034905;28;20668;-68
2023/01/13 11:22:46;;;;;;;8.48;7.63;;;;;;;;;;5038152;28;20048;-68
2023/01/13 11:25:16;;;;;;;7.07;6.30;;;;;;;;;;5035082;28;20051;-68
2023/01/13 11:27:52;;;;;;;6.70;6.20;;;;;;;;;;5039277;28;20040;-69
2023/01/13 11:30:21;;;;;;;7.55;6.78;;;;;;;;;;5034476;28;20132;-69
2023/01/13 11:33:24;;;;;;;6.43;5.88;;;;;;;;;;5035851;28;20102;-69
2023/01/13 11:36:09;;;;;;;7.78;6.88;;;;;;;;;;4993236;28;20065;-69
2023/01/13 11:38:39;;;;;;;7.72;7.03;;;;;;;;;;5032431;28;20056;-69
2023/01/13 11:41:25;;;;;;;14.70;11.90;;;;;;;;;;5035475;28;20041;-68
2023/01/13 11:44:04;;;;;;;9.65;7.97;;;;;;;;;;5034365;28;20037;-69
2023/01/13 11:46:31;;;;;;;6.65;5.82;;;;;;;;;;5028488;28;20048;-70
2023/01/13 11:48:58;;;;;;;8.85;6.93;;;;;;;;;;5036485;28;20301;-70
2023/01/13 11:51:31;;;;;;;8.57;7.70;;;;;;;;;;5033653;28;20045;-68
2023/01/13 11:53:57;;;;;;;6.15;5.60;;;;;;;;;;5035195;28;20047;-68
2023/01/13 11:56:30;;;;;;;12.45;9.35;;;;;;;;;;5032691;28;20047;-67
2023/01/13 11:59:04;;;;;;;8.52;7.65;;;;;;;;;;5035322;28;20041;-67
2023/01/13 12:01:31;;;;;;;6.45;5.75;;;;;;;;;;5036263;28;20053;-68
2023/01/13 12:04:04;;;;;;;16.42;12.23;;;;;;;;;;5035491;28;20033;-67
2023/01/13 12:06:34;;;;;;;6.85;6.25;;;;;;;;;;5035818;28;20041;-67
2023/01/13 12:09:15;;;;;;;12.07;9.00;;;;;;;;;;5032789;28;20511;-67
2023/01/13 12:14:49;;;;;;;17.02;12.77;;;;;;;;;;5032565;28;20069;-67
2023/01/13 12:17:25;;;;;;;6.82;5.57;;;;;;;;;;5035849;28;20528;-68
2023/01/13 12:19:52;;;;;;;5.25;4.75;;;;;;;;;;5034403;28;20176;-69
2023/01/13 12:22:26;;;;;;;8.57;5.93;;;;;;;;;;5036914;28;20072;-69
2023/01/13 12:25:03;;;;;;;6.35;5.75;;;;;;;;;;5032420;28;20045;-68
2023/01/13 12:27:36;;;;;;;9.23;7.15;;;;;;;;;;5033003;28;20053;-68
2023/01/13 12:30:12;;;;;;;7.03;6.32;;;;;;;;;;5040235;28;20052;-68
2023/01/13 12:32:39;;;;;;;6.95;6.38;;;;;;;;;;5030460;28;20053;-69
2023/01/13 12:35:15;;;;;;;6.57;5.70;;;;;;;;;;5034573;28;20045;-69
2023/01/13 12:38:06;;;;;;;11.30;9.48;;;;;;;;;;5041723;28;20041;-69
2023/01/13 12:40:33;;;;;;;7.13;6.43;;;;;;;;;;5029829;28;20041;-66
2023/01/13 12:46:19;;;;;;;7.75;7.05;;;;;;;;;;5033199;28;20788;-69
2023/01/13 12:48:56;;;;;;;7.65;6.88;;;;;;;;;;5034876;28;20037;-69
2023/01/13 12:51:28;;;;;;;8.55;7.88;;;;;;;;;;5056885;28;20799;-70
2023/01/13 12:53:55;;;;;;;8.18;7.45;;;;;;;;;;5061164;28;20041;-71
2023/01/13 12:56:37;;;;;;;11.50;10.40;;;;;;;;;;5031781;28;20072;-69
2023/01/13 12:59:16;;;;;;;10.65;6.40;;;;;;;;;;5034453;28;20049;-69
2023/01/13 13:01:43;;;;;;;10.52;8.98;;;;;;;;;;5053356;28;20045;-69
2023/01/13 13:04:32;;;;;;;12.02;10.82;;;;;;;;;;5041073;28;20041;-68
2023/01/13 13:07:11;;;;;;;8.25;4.90;;;;;;;;;;5034094;28;20535;-70
2023/01/13 13:10:01;;;;;;;12.00;10.73;;;;;;;;;;5038251;28;20155;-68
2023/01/13 13:15:21;;;;;;;32.15;16.55;;;;;;;;;;5035470;28;20130;-67
2023/01/13 13:18:07;;;;;;;8.98;8.15;;;;;;;;;;5033156;28;20053;-68
2023/01/13 13:20:53;;;;;;;9.20;8.27;;;;;;;;;;5038796;28;20532;-67
2023/01/13 13:23:25;;;;;;;30.77;17.50;;;;;;;;;;5031236;28;20578;-69
2023/01/13 13:25:58;;;;;;;13.70;9.82;;;;;;;;;;5038447;28;20123;-67
2023/01/13 13:28:26;;;;;;;24.35;15.93;;;;;;;;;;5035462;28;20045;-69
2023/01/13 13:31:04;;;;;;;9.90;7.93;;;;;;;;;;5037690;28;20064;-69
2023/01/13 13:33:46;;;;;;;11.60;10.40;;;;;;;;;;5034049;28;20055;-68
2023/01/13 13:36:20;;;;;;;14.05;11.15;;;;;;;;;;5040016;28;20059;-67
2023/01/13 13:47:21;;;;;;;12.18;8.60;;;;;;;;;;5039527;28;20072;-70
2023/01/13 13:49:52;;;;;;;9.95;8.05;;;;;;;;;;5036976;28;20041;-67
2023/01/13 13:52:23;;;;;;;11.55;8.27;;;;;;;;;;5039050;28;20048;-67
2023/01/13 13:54:51;;;;;;;8.32;5.13;;;;;;;;;;5037659;28;20443;-67
2023/01/13 13:57:33;;;;;;;8.15;6.93;;;;;;;;;;5038774;28;20053;-68
2023/01/13 14:00:05;;;;;;;8.80;7.60;;;;;;;;;;5039085;28;20154;-69
2023/01/13 14:02:37;;;;;;;8.68;7.20;;;;;;;;;;5038186;28;21316;-66
2023/01/13 14:05:16;;;;;;;10.05;9.15;;;;;;;;;;5033117;28;20135;-68
2023/01/13 14:07:44;;;;;;;9.70;7.88;;;;;;;;;;5038073;28;20136;-69
2023/01/13 14:10:27;;;;;;;30.77;20.27;;;;;;;;;;5033208;28;20060;-69
2023/01/13 14:12:54;;;;;;;10.65;9.65;;;;;;;;;;5033832;28;20586;-68
2023/01/13 14:15:25;;;;;;;11.65;10.55;;;;;;;;;;5036501;28;20049;-69
2023/01/13 14:17:52;;;;;;;12.10;10.68;;;;;;;;;;5037260;28;20157;-70
2023/01/13 14:20:18;;;;;;;12.40;11.20;;;;;;;;;;5031448;28;20775;-69
2023/01/13 14:22:47;;;;;;;12.13;10.88;;;;;;;;;;5030481;28;20033;-68
2023/01/13 14:25:29;;;;;;;7.32;4.32;;;;;;;;;;5035634;28;20044;-67
2023/01/13 14:27:57;;;;;;;44.80;23.15;;;;;;;;;;5029817;28;20055;-68
2023/01/13 14:30:26;;;;;;;15.15;13.65;;;;;;;;;;5031547;28;20064;-68
2023/01/13 14:32:53;;;;;;;18.88;16.55;;;;;;;;;;5028126;28;20086;-68
2023/01/13 14:35:19;;;;;;;11.80;10.25;;;;;;;;;;5036506;28;20043;-68
2023/01/13 14:37:47;;;;;;;15.52;12.57;;;;;;;;;;5033940;28;20048;-68
2023/01/13 14:40:37;;;;;;;17.30;13.90;;;;;;;;;;5030412;28;20048;-68
2023/01/13 14:43:13;;;;;;;12.45;10.45;;;;;;;;;;5029645;28;20048;-69
2023/01/13 14:45:42;;;;;;;15.00;13.23;;;;;;;;;;5034893;28;20044;-69
2023/01/13 14:48:13;;;;;;;50.05;30.85;;;;;;;;;;5028802;28;20430;-68
2023/01/13 14:50:44;;;;;;;36.55;27.90;;;;;;;;;;5036120;28;20069;-69
2023/01/13 14:53:33;;;;;;;23.52;15.57;;;;;;;;;;5028705;28;20049;-67
2023/01/13 14:56:20;;;;;;;26.35;16.85;;;;;;;;;;5035685;28;20145;-69
2023/01/13 14:58:48;;;;;;;21.42;12.82;;;;;;;;;;5051157;28;20959;-68
2023/01/13 15:01:26;;;;;;;37.13;22.73;;;;;;;;;;5032556;28;20057;-69
2023/01/13 15:04:14;;;;;;;23.02;17.25;;;;;;;;;;5033693;28;20086;-69
2023/01/13 15:06:44;;;;;;;30.92;20.80;;;;;;;;;;5039738;28;20053;-70
2023/01/13 15:09:11;;;;;;;23.75;19.85;;;;;;;;;;5033787;28;20049;-68
2023/01/13 15:11:39;;;;;;;26.75;20.25;;;;;;;;;;5033555;28;20099;-69
2023/01/13 15:14:08;;;;;;;16.52;14.65;;;;;;;;;;5031237;28;20047;-68
2023/01/13 15:16:35;;;;;;;22.45;19.83;;;;;;;;;;5015904;28;20114;-68
2023/01/13 15:19:03;;;;;;;19.52;17.55;;;;;;;;;;5028104;28;20045;-69
2023/01/13 15:21:29;;;;;;;25.73;19.25;;;;;;;;;;5029832;28;20045;-68
2023/01/13 15:23:56;;;;;;;26.92;20.15;;;;;;;;;;5031133;28;20552;-67
2023/01/13 15:26:24;;;;;;;25.40;22.23;;;;;;;;;;5031303;28;20041;-67
2023/01/13 15:28:51;;;;;;;;;;;;;;;;;;5034815;28;20118;-67
2023/01/13 15:31:18;;;;;;;40.40;25.98;;;;;;;;;;5030951;28;19929;-68
2023/01/13 15:33:45;;;;;;;42.63;29.63;;;;;;;;;;5038267;28;20059;-69
2023/01/13 15:36:17;;;;;;;54.10;39.38;;;;;;;;;;5032403;28;20045;-68
2023/01/13 15:38:44;;;;;;;52.67;37.38;;;;;;;;;;5025612;28;20042;-69
2023/01/13 15:41:11;;;;;;;40.55;29.13;;;;;;;;;;5028989;28;20045;-69
2023/01/13 15:46:38;;;;;;;94.10;50.13;;;;;;;;;;5031534;28;20052;-68
2023/01/13 15:49:17;;;;;;;71.90;42.75;;;;;;;;;;5036046;28;20080;-68